ADDS METAR Data INFO
IDs: Format: Raw Decoded Include TAF

Data at: 0036 UTC 23 Oct 2017

KCQX 230011Z AUTO 20003KT 10SM OVC005 16/16 A3041 RMK AO2 T01560156
KCQX 230000Z AUTO 17003KT 10SM OVC004 16/16 A3041 RMK AO2 T01560156
KCQX 222352Z AUTO VRB04KT 9SM OVC005 16/16 A3041 RMK AO2 SLP299 T01560156 10211 20156 53004
KCQX 222338Z AUTO VRB03KT 8SM BKN005 16/16 A3041 RMK AO2 T01560156
KCQX 222252Z AUTO 00000KT 10SM FEW003 16/16 A3041 RMK AO2 SLP297 T01610161
KCQX 222241Z AUTO 20003KT 10SM FEW003 16/16 A3041 RMK AO2 T01610161
KCQX 222152Z AUTO 20004KT 10SM CLR 17/16 A3040 RMK AO2 SLP296 T01670161
KCQX 222052Z AUTO 22004KT 10SM CLR 18/17 A3040 RMK AO2 SLP295 T01830167 55001
KCQX 221952Z AUTO 22005KT 10SM CLR 19/17 A3040 RMK AO2 SLP294 T01890167
KCQX 221852Z AUTO 10SM CLR 20/17 A3040 RMK AO2 SLP294 T02000167
KCQX 221752Z AUTO 21006KT 10SM CLR 21/16 A3040 RMK AO2 SLP296 T02110161 10228 20133 56005
KCQX 221652Z AUTO 00000KT 10SM CLR 22/16 A3040 RMK AO2 SLP297 T02170161
KCQX 221552Z AUTO 22004KT 10SM CLR 21/17 A3041 RMK AO2 SLP298 T02110172
KCQX 221452Z AUTO 18003KT 10SM CLR 20/17 A3042 RMK AO2 SLP301 T02000172 50008
KCQX 221352Z AUTO 22003KT 10SM CLR 18/17 A3042 RMK AO2 SLP303 T01830167
KCQX 221252Z AUTO 00000KT 10SM CLR 18/17 A3042 RMK AO2 SLP301 T01780172
KCQX 221152Z AUTO 00000KT 10SM CLR 13/13 A3039 RMK AO2 SLP293 T01330133 10161 20122 53013
KCQX 221052Z AUTO 24003KT 10SM CLR 13/13 A3038 RMK AO2 SLP288 T01280128
KCQX 220952Z AUTO 00000KT 10SM CLR 13/13 A3037 RMK AO2 SLP284 T01330133
KCQX 220852Z AUTO 25003KT 10SM CLR 14/14 A3036 RMK AO2 SLP281 T01390139 53003
KCQX 220752Z AUTO 24004KT 10SM CLR 15/15 A3035 RMK AO2 SLP279 T01500150
KCQX 220652Z AUTO 23005KT 10SM CLR 16/15 A3035 RMK AO2 SLP277 T01560150
KCQX 220552Z AUTO 23005KT 10SM CLR 16/15 A3035 RMK AO2 SLP277 T01610150 10161 20161 58002
KCQX 220452Z AUTO 23006KT 10SM CLR 16/15 A3035 RMK AO2 SLP280 T01610150 402060089
KCQX 220352Z AUTO 23006KT 10SM CLR 16/15 A3036 RMK AO2 SLP280 T01610150
KCQX 220252Z AUTO 22006KT 10SM CLR 16/16 A3035 RMK AO2 SLP280 T01610156 51007
KCQX 220152Z AUTO 22007KT 10SM CLR 16/15 A3035 RMK AO2 SLP279 T01610150
KCQX 220052Z AUTO VRB06KT 10SM CLR 16/14 A3034 RMK AO2 SLP275 T01610139
KCQX 212352Z AUTO 23005KT 10SM CLR 16/13 A3033 RMK AO2 SLP273 T01610133 10200 20161 53013
KCQX 212252Z AUTO 22006KT 10SM CLR 16/13 A3033 RMK AO2 SLP270 T01610128
KCQX 212152Z AUTO 22008KT 10SM CLR 16/12 A3030 RMK AO2 SLP262 T01610122
KCQX 212052Z AUTO 22005G15KT 10SM CLR 17/12 A3030 RMK AO2 SLP260 T01720117 53000
KCQX 211952Z AUTO 22009G15KT 10SM CLR 18/10 A3029 RMK AO2 SLP259 T01780100
KCQX 211852Z AUTO 22005KT 10SM CLR 19/10 A3029 RMK AO2 SLP258 T01940100
KCQX 211752Z AUTO VRB04KT 10SM CLR 20/11 A3029 RMK AO2 SLP260 T02000106 10206 20106 58008
KCQX 211652Z AUTO 23009KT 10SM CLR 19/09 A3031 RMK AO2 SLP264 T01940094
KCQX 211552Z AUTO 21008KT 180V240 10SM CLR 19/11 A3032 RMK AO2 SLP268 T01890106
KCQX 211452Z AUTO VRB05KT 10SM CLR 19/09 A3032 RMK AO2 SLP268 T01890094 53013
KCQX 211352Z AUTO 20005KT 10SM CLR 18/08 A3030 RMK AO2 SLP262 T01830078
KCQX 211252Z AUTO 00000KT 10SM CLR 16/11 A3029 RMK AO2 SLP259 T01610106